createdAt,value
2023-01-19T00:00:28.038Z,82.50
2023-01-19T00:02:54.893Z,82.76
2023-01-19T00:05:21.467Z,82.48
2023-01-19T00:07:48.019Z,82.32
2023-01-19T00:10:14.576Z,82.17
2023-01-19T00:12:40.988Z,82.36
2023-01-19T00:15:08.214Z,82.39
2023-01-19T00:17:34.677Z,82.71
2023-01-19T00:20:01.104Z,82.46
2023-01-19T00:22:27.590Z,83.22
2023-01-19T00:24:53.965Z,83.20
2023-01-19T00:27:20.358Z,82.90
2023-01-19T00:29:46.754Z,83.01
2023-01-19T00:32:13.174Z,83.02
2023-01-19T00:34:42.568Z,82.85
2023-01-19T00:37:09.954Z,82.80
2023-01-19T00:39:36.461Z,82.87
2023-01-19T00:42:22.095Z,82.76
2023-01-19T00:44:48.689Z,82.85
2023-01-19T00:47:15.082Z,82.98
2023-01-19T00:49:41.479Z,83.04
2023-01-19T00:52:08.006Z,82.88
2023-01-19T00:54:34.516Z,83.16
2023-01-19T00:57:01.351Z,83.66
2023-01-19T00:59:27.736Z,83.61
2023-01-19T01:01:54.664Z,83.49
2023-01-19T01:04:21.244Z,83.56
2023-01-19T01:06:47.648Z,83.91
2023-01-19T01:09:14.030Z,83.45
2023-01-19T01:11:42.340Z,83.50
2023-01-19T01:14:10.215Z,83.64
2023-01-19T01:16:36.638Z,83.32
2023-01-19T01:19:03.176Z,83.87
2023-01-19T01:21:29.602Z,83.91
2023-01-19T01:23:56.189Z,84.09
2023-01-19T01:26:22.617Z,84.00
2023-01-19T01:28:49.038Z,84.33
2023-01-19T01:31:15.615Z,85.00
2023-01-19T01:33:42.133Z,84.40
2023-01-19T01:36:09.815Z,84.91
2023-01-19T01:38:36.219Z,84.32
2023-01-19T01:41:02.733Z,84.77
2023-01-19T01:43:58.143Z,85.03
2023-01-19T01:46:26.858Z,84.51
2023-01-19T01:49:07.519Z,84.78
2023-01-19T01:51:48.073Z,83.84
2023-01-19T01:54:29.367Z,84.07
2023-01-19T01:57:00.195Z,84.60
2023-01-19T01:59:34.635Z,84.37
2023-01-19T02:02:25.759Z,83.80
2023-01-19T02:04:58.375Z,83.92
2023-01-19T02:07:58.275Z,83.86
2023-01-19T02:10:43.643Z,84.32
2023-01-19T02:13:23.009Z,83.97
2023-01-19T02:15:55.660Z,84.05
2023-01-19T02:18:26.385Z,84.39
2023-01-19T02:21:29.809Z,84.34
2023-01-19T02:23:58.250Z,83.61
2023-01-19T02:26:29.730Z,83.58
2023-01-19T02:29:07.125Z,83.87
2023-01-19T02:31:35.186Z,83.56
2023-01-19T02:34:03.989Z,84.30
2023-01-19T02:36:42.829Z,83.75
2023-01-19T02:39:11.161Z,84.21
2023-01-19T02:41:51.563Z,83.50
2023-01-19T02:44:20.248Z,82.84
2023-01-19T02:46:47.390Z,82.71
2023-01-19T02:49:14.180Z,82.85
2023-01-19T02:51:43.994Z,82.48
2023-01-19T02:54:27.010Z,82.11
2023-01-19T02:57:01.450Z,81.84
2023-01-19T02:59:33.657Z,81.39
2023-01-19T03:02:21.877Z,81.21
2023-01-19T03:05:08.358Z,81.56
2023-01-19T03:07:34.681Z,81.55
2023-01-19T03:10:17.194Z,81.46
2023-01-19T03:12:51.692Z,81.22
2023-01-19T03:15:36.418Z,81.48
2023-01-19T03:18:08.535Z,81.46
2023-01-19T03:20:36.552Z,81.53
2023-01-19T03:23:08.298Z,81.49
2023-01-19T03:25:39.249Z,81.49
2023-01-19T03:28:05.837Z,81.46
2023-01-19T03:30:38.761Z,81.15
2023-01-19T03:33:11.196Z,81.92
2023-01-19T03:35:44.449Z,81.97
2023-01-19T03:38:16.587Z,81.85
2023-01-19T03:40:45.143Z,81.74
2023-01-19T03:43:13.014Z,81.86
2023-01-19T03:45:40.019Z,82.28
2023-01-19T03:48:07.072Z,82.33
2023-01-19T03:50:33.496Z,82.47
2023-01-19T03:53:01.942Z,82.34
2023-01-19T03:55:29.036Z,82.01
2023-01-19T03:57:55.403Z,82.50
2023-01-19T04:00:21.820Z,81.81
2023-01-19T04:02:48.292Z,82.59
2023-01-19T04:05:15.406Z,82.48
2023-01-19T04:07:41.866Z,81.89
2023-01-19T04:10:12.546Z,82.28
2023-01-19T04:12:40.038Z,81.91
2023-01-19T04:15:07.103Z,82.03
2023-01-19T04:17:33.679Z,82.11
2023-01-19T04:20:00.379Z,81.98
2023-01-19T04:22:26.981Z,82.11
2023-01-19T04:24:53.431Z,81.48
2023-01-19T04:27:19.848Z,81.81
2023-01-19T04:29:46.291Z,81.89
2023-01-19T04:32:16.014Z,81.55
2023-01-19T04:34:42.463Z,81.47
2023-01-19T04:37:09.096Z,81.21
2023-01-19T04:39:35.764Z,81.33
2023-01-19T04:42:02.427Z,81.50
2023-01-19T04:44:29.177Z,80.71
2023-01-19T04:46:55.655Z,80.83
2023-01-19T04:49:22.121Z,80.73
2023-01-19T04:51:48.527Z,80.60
2023-01-19T04:54:15.055Z,80.51
2023-01-19T04:56:41.572Z,80.30
2023-01-19T04:59:08.160Z,80.66
2023-01-19T05:01:34.995Z,80.00
2023-01-19T05:04:02.039Z,80.03
2023-01-19T05:06:28.414Z,79.19
2023-01-19T05:08:54.825Z,79.26
2023-01-19T05:11:21.439Z,79.32
2023-01-19T05:13:48.747Z,79.32
2023-01-19T05:16:16.672Z,78.64
2023-01-19T05:18:43.179Z,78.90
2023-01-19T05:21:09.619Z,78.45
2023-01-19T05:23:36.054Z,78.44
2023-01-19T05:26:03.161Z,78.44
2023-01-19T05:28:31.252Z,77.97
2023-01-19T05:30:57.875Z,77.71
2023-01-19T05:33:24.852Z,77.46
2023-01-19T05:35:53.063Z,77.68
2023-01-19T05:38:29.375Z,77.45
2023-01-19T05:41:00.488Z,77.27
2023-01-19T05:43:26.974Z,77.48
2023-01-19T05:45:53.444Z,77.27
2023-01-19T05:48:19.891Z,76.87
2023-01-19T05:50:49.248Z,76.94
2023-01-19T05:53:17.101Z,77.21
2023-01-19T05:55:43.646Z,77.19
2023-01-19T05:58:10.143Z,77.27
2023-01-19T06:00:36.617Z,76.70
2023-01-19T06:03:04.051Z,77.28
2023-01-19T06:05:30.822Z,76.54
2023-01-19T06:07:57.219Z,77.27
2023-01-19T06:10:23.738Z,77.07
2023-01-19T06:12:51.689Z,77.02
2023-01-19T06:15:18.616Z,76.45
2023-01-19T06:17:45.102Z,76.32
2023-01-19T06:20:13.897Z,75.89
2023-01-19T06:22:40.314Z,75.95
2023-01-19T06:25:06.978Z,75.46
2023-01-19T06:27:33.379Z,75.25
2023-01-19T06:29:59.781Z,74.98
2023-01-19T06:32:26.254Z,75.07
2023-01-19T06:34:54.027Z,74.64
2023-01-19T06:37:20.637Z,74.74
2023-01-19T06:39:47.082Z,75.11
2023-01-19T06:42:13.500Z,74.35
2023-01-19T06:44:47.092Z,74.82
2023-01-19T06:47:16.359Z,74.84
2023-01-19T06:49:43.680Z,75.22
2023-01-19T06:52:15.917Z,75.05
2023-01-19T06:54:43.485Z,75.10
2023-01-19T06:57:13.087Z,74.87
2023-01-19T06:59:39.468Z,75.20
2023-01-19T07:02:06.298Z,75.36
2023-01-19T07:04:52.677Z,75.01
2023-01-19T07:07:19.100Z,74.93
2023-01-19T07:09:45.519Z,75.12
2023-01-19T07:12:11.933Z,74.83
2023-01-19T07:14:38.360Z,75.32
2023-01-19T07:17:04.728Z,76.07
2023-01-19T07:19:31.209Z,75.56
2023-01-19T07:21:57.892Z,75.74
2023-01-19T07:24:24.376Z,76.10
2023-01-19T07:26:50.803Z,75.83
2023-01-19T07:29:17.192Z,76.13
2023-01-19T07:31:43.740Z,75.89
2023-01-19T07:34:12.493Z,75.77
2023-01-19T07:36:38.996Z,76.48
2023-01-19T07:39:05.401Z,76.38
2023-01-19T07:41:32.437Z,76.11
2023-01-19T07:43:58.853Z,76.49
2023-01-19T07:46:25.333Z,76.03
2023-01-19T07:48:51.821Z,76.03
2023-01-19T07:51:18.893Z,76.46
2023-01-19T07:53:46.549Z,75.91
2023-01-19T07:56:13.147Z,75.50
2023-01-19T07:58:39.825Z,75.99
2023-01-19T08:01:10.919Z,75.71
2023-01-19T08:03:38.032Z,75.50
2023-01-19T08:06:05.351Z,75.48
2023-01-19T08:08:32.981Z,75.25
2023-01-19T08:10:59.749Z,75.21
2023-01-19T08:13:26.720Z,75.26
2023-01-19T08:15:54.140Z,74.43
2023-01-19T08:18:21.019Z,74.82
2023-01-19T08:20:47.588Z,74.60
2023-01-19T08:23:14.013Z,73.73
2023-01-19T08:25:45.022Z,74.33
2023-01-19T08:28:14.122Z,73.96
2023-01-19T08:30:43.383Z,74.10
2023-01-19T08:33:10.488Z,74.00
2023-01-19T08:35:41.918Z,73.77
2023-01-19T08:38:10.023Z,73.02
2023-01-19T08:40:39.005Z,73.06
2023-01-19T08:43:08.652Z,72.53
2023-01-19T08:45:36.780Z,72.75
2023-01-19T08:48:03.936Z,71.33
2023-01-19T08:50:32.014Z,70.30
2023-01-19T08:53:00.777Z,70.22
2023-01-19T08:55:29.198Z,69.89
2023-01-19T08:57:57.847Z,69.83
2023-01-19T09:00:27.143Z,69.81
2023-01-19T09:02:54.796Z,69.90
2023-01-19T09:05:21.330Z,70.00
2023-01-19T09:07:51.613Z,70.48
2023-01-19T09:10:18.737Z,70.72
2023-01-19T09:12:46.294Z,71.60
2023-01-19T09:15:16.063Z,70.41
2023-01-19T09:17:42.511Z,70.02
2023-01-19T09:20:09.692Z,70.37
2023-01-19T09:22:36.171Z,69.53
2023-01-19T09:25:02.688Z,69.29
2023-01-19T09:27:29.109Z,69.90
2023-01-19T09:29:55.501Z,68.64
2023-01-19T09:32:22.808Z,68.30
2023-01-19T09:34:49.248Z,68.25
2023-01-19T09:37:16.205Z,68.05
2023-01-19T09:39:42.779Z,68.10
2023-01-19T09:42:36.431Z,67.47
2023-01-19T09:45:08.605Z,67.23
2023-01-19T09:47:37.226Z,67.43
2023-01-19T09:50:12.465Z,66.88
2023-01-19T09:52:43.782Z,66.21
2023-01-19T09:55:30.645Z,66.47
2023-01-19T09:57:57.107Z,65.88
2023-01-19T10:00:25.483Z,64.16
2023-01-19T10:02:58.578Z,64.85
2023-01-19T10:05:46.682Z,64.44
2023-01-19T10:08:26.984Z,63.76
2023-01-19T10:10:55.588Z,62.93
2023-01-19T10:13:36.680Z,62.84
2023-01-19T10:16:40.481Z,61.16
2023-01-19T10:19:28.510Z,61.38
2023-01-19T10:21:58.698Z,60.99
2023-01-19T10:24:40.420Z,60.70
2023-01-19T10:27:18.416Z,60.23
2023-01-19T10:29:46.190Z,59.48
2023-01-19T10:32:34.119Z,59.84
2023-01-19T10:35:00.956Z,60.17
2023-01-19T10:37:33.453Z,60.06
2023-01-19T10:40:08.894Z,59.96
2023-01-19T10:42:37.097Z,60.45
2023-01-19T10:45:04.888Z,60.71
2023-01-19T10:47:36.283Z,61.09
2023-01-19T10:50:32.368Z,60.65
2023-01-19T10:53:05.892Z,60.30
2023-01-19T10:55:40.520Z,60.26
2023-01-19T10:58:27.898Z,60.98
2023-01-19T11:00:54.435Z,61.14
2023-01-19T11:03:25.234Z,59.13
2023-01-19T11:05:51.700Z,58.50
2023-01-19T11:08:23.677Z,58.70
2023-01-19T11:11:04.293Z,59.40
2023-01-19T11:13:32.116Z,60.14
2023-01-19T11:16:05.468Z,60.29
2023-01-19T11:18:34.791Z,61.07
2023-01-19T11:21:24.305Z,61.91
2023-01-19T11:23:56.143Z,61.15
2023-01-19T11:26:33.630Z,61.56
2023-01-19T11:29:03.146Z,61.46
2023-01-19T11:31:29.552Z,62.18
2023-01-19T11:34:05.503Z,62.50
2023-01-19T11:36:35.532Z,62.82
2023-01-19T11:39:23.489Z,62.40
2023-01-19T11:41:56.196Z,62.78
2023-01-19T11:44:29.277Z,63.28
2023-01-19T11:46:59.642Z,63.33
2023-01-19T11:49:37.673Z,63.46
2023-01-19T11:52:12.758Z,63.11
2023-01-19T11:54:49.368Z,63.17
2023-01-19T11:57:20.114Z,63.36
2023-01-19T11:59:46.620Z,63.44
2023-01-19T12:02:20.649Z,62.84
2023-01-19T12:04:49.180Z,61.98
2023-01-19T12:07:22.415Z,62.23
2023-01-19T12:09:56.446Z,61.38
2023-01-19T12:12:29.952Z,60.50
2023-01-19T12:15:02.276Z,60.96
2023-01-19T12:17:58.248Z,61.18
2023-01-19T12:20:35.017Z,61.24
2023-01-19T12:23:27.858Z,62.21
2023-01-19T12:26:27.878Z,61.61
2023-01-19T12:28:58.542Z,61.68
2023-01-19T12:31:25.174Z,61.23
2023-01-19T12:33:52.016Z,61.25
2023-01-19T12:36:27.750Z,62.04
2023-01-19T12:38:57.058Z,61.79
2023-01-19T12:41:33.708Z,61.52
2023-01-19T12:44:12.307Z,61.50
2023-01-19T12:46:43.575Z,61.43
2023-01-19T12:49:50.383Z,61.16
2023-01-19T12:52:19.587Z,61.69
2023-01-19T12:55:05.036Z,62.00
2023-01-19T12:57:46.426Z,61.29
2023-01-19T13:00:21.839Z,61.94
2023-01-19T13:02:53.924Z,62.09
2023-01-19T13:05:24.807Z,61.88
2023-01-19T13:08:03.506Z,61.30
2023-01-19T13:11:02.082Z,61.15
2023-01-19T13:13:30.561Z,59.90
2023-01-19T13:16:20.300Z,60.58
2023-01-19T13:18:51.312Z,60.12
2023-01-19T13:21:30.392Z,60.16
2023-01-19T13:23:58.906Z,60.02
2023-01-19T13:26:32.806Z,60.25
2023-01-19T13:29:26.541Z,60.63
2023-01-19T13:31:56.133Z,60.51
2023-01-19T13:34:27.817Z,60.67
2023-01-19T13:36:56.981Z,59.79
2023-01-19T13:39:36.786Z,60.72
2023-01-19T13:42:21.949Z,60.08
2023-01-19T13:44:52.372Z,60.63
2023-01-19T13:47:23.841Z,60.61
2023-01-19T13:49:58.378Z,61.08
2023-01-19T13:52:29.498Z,61.03
2023-01-19T13:55:01.347Z,60.25
2023-01-19T13:57:38.692Z,59.99
2023-01-19T14:00:16.135Z,59.37
2023-01-19T14:03:16.267Z,60.35
2023-01-19T14:05:44.240Z,59.63
2023-01-19T14:08:11.316Z,59.76
2023-01-19T14:10:42.307Z,59.79
2023-01-19T14:13:32.085Z,59.78
2023-01-19T14:16:04.767Z,59.49
2023-01-19T14:18:33.172Z,59.51
2023-01-19T14:21:08.813Z,59.01
2023-01-19T14:23:51.508Z,59.56
2023-01-19T14:27:06.511Z,58.62
2023-01-19T14:29:34.915Z,58.38
2023-01-19T14:32:01.253Z,58.39
2023-01-19T14:34:41.613Z,58.39
2023-01-19T14:37:21.917Z,58.61
2023-01-19T14:39:57.091Z,58.56
2023-01-19T14:42:31.037Z,58.84
2023-01-19T14:45:00.776Z,58.74
2023-01-19T14:47:38.087Z,58.67
2023-01-19T14:50:09.373Z,59.13
2023-01-19T14:52:41.968Z,59.10
2023-01-19T14:55:21.402Z,59.20
2023-01-19T14:57:48.196Z,58.92
2023-01-19T15:00:19.886Z,59.14
2023-01-19T15:02:46.935Z,58.64
2023-01-19T15:05:14.556Z,58.31
2023-01-19T15:07:44.193Z,57.92
2023-01-19T15:10:16.990Z,57.86
2023-01-19T15:12:43.584Z,58.05
2023-01-19T15:15:15.284Z,58.89
2023-01-19T15:17:42.475Z,58.66
2023-01-19T15:20:16.349Z,58.63
2023-01-19T15:22:43.359Z,58.45
2023-01-19T15:25:13.534Z,58.57
2023-01-19T15:27:40.051Z,58.81
2023-01-19T15:30:18.131Z,59.23
2023-01-19T15:32:45.004Z,59.23
2023-01-19T15:35:20.380Z,59.86
2023-01-19T15:37:47.482Z,59.52
2023-01-19T15:40:15.173Z,59.70
2023-01-19T15:42:41.771Z,59.29
2023-01-19T15:45:34.446Z,59.53
2023-01-19T15:48:03.783Z,59.44
2023-01-19T15:50:30.217Z,59.96
2023-01-19T15:52:56.757Z,59.64
2023-01-19T15:55:23.311Z,60.23
2023-01-19T15:57:49.742Z,60.40
2023-01-19T16:00:16.714Z,60.93
2023-01-19T16:02:43.160Z,61.09
2023-01-19T16:05:10.207Z,61.34
2023-01-19T16:07:36.967Z,61.72
2023-01-19T16:10:06.266Z,61.73
2023-01-19T16:12:32.682Z,61.97
2023-01-19T16:14:59.071Z,62.50
2023-01-19T16:17:25.493Z,62.27
2023-01-19T16:19:51.905Z,62.80
2023-01-19T16:22:18.314Z,62.54
2023-01-19T16:24:46.493Z,63.10
2023-01-19T16:27:12.859Z,63.11
2023-01-19T16:29:39.302Z,62.63
2023-01-19T16:32:05.714Z,63.13
2023-01-19T16:34:32.142Z,63.26
2023-01-19T16:36:58.840Z,63.42
2023-01-19T16:39:25.416Z,63.29
2023-01-19T16:41:51.789Z,63.53
2023-01-19T16:44:18.861Z,63.62
2023-01-19T16:46:46.517Z,64.21
2023-01-19T16:49:17.469Z,63.81
2023-01-19T16:51:44.372Z,63.82
2023-01-19T16:54:15.342Z,63.92
2023-01-19T16:56:42.123Z,64.19
2023-01-19T16:59:15.044Z,64.59
2023-01-19T17:01:43.711Z,64.50
2023-01-19T17:04:11.668Z,64.88
2023-01-19T17:06:38.588Z,64.75
2023-01-19T17:09:06.108Z,64.59
2023-01-19T17:11:34.741Z,64.91
2023-01-19T17:14:13.357Z,65.24
2023-01-19T17:16:40.300Z,64.82
2023-01-19T17:19:07.430Z,64.90
2023-01-19T17:21:34.714Z,64.74
2023-01-19T17:24:01.597Z,64.92
2023-01-19T17:26:30.729Z,64.77
2023-01-19T17:29:00.908Z,64.93
2023-01-19T17:31:28.064Z,64.87
2023-01-19T17:33:54.659Z,64.84
2023-01-19T17:36:25.184Z,64.91
2023-01-19T17:38:53.300Z,64.98
2023-01-19T17:41:28.760Z,64.88
2023-01-19T17:43:56.045Z,65.31
2023-01-19T17:46:25.022Z,65.46
2023-01-19T17:48:53.178Z,65.10
2023-01-19T17:51:19.999Z,66.27
2023-01-19T17:53:46.490Z,66.17
2023-01-19T17:56:15.018Z,66.13
2023-01-19T17:58:41.677Z,66.81
2023-01-19T18:01:13.677Z,67.78
2023-01-19T18:03:40.975Z,68.06
2023-01-19T18:06:07.779Z,68.87
2023-01-19T18:08:36.120Z,69.00
2023-01-19T18:11:03.118Z,69.49
2023-01-19T18:13:29.891Z,69.46
2023-01-19T18:16:01.123Z,69.76
2023-01-19T18:18:28.258Z,69.78
2023-01-19T18:21:08.021Z,70.22
2023-01-19T18:23:35.336Z,70.22
2023-01-19T18:26:04.626Z,70.61
2023-01-19T18:28:31.526Z,71.29
2023-01-19T18:30:58.208Z,71.45
2023-01-19T18:33:25.709Z,71.88
2023-01-19T18:35:52.190Z,71.72
2023-01-19T18:38:18.803Z,71.76
2023-01-19T18:40:45.355Z,71.95
2023-01-19T18:43:12.471Z,72.50
2023-01-19T18:45:41.666Z,72.47
2023-01-19T18:48:26.194Z,72.91
2023-01-19T18:50:53.425Z,72.85
2023-01-19T18:53:20.458Z,73.04
2023-01-19T18:55:52.215Z,72.65
2023-01-19T18:58:19.741Z,73.39
2023-01-19T19:00:46.310Z,73.62
2023-01-19T19:03:12.970Z,73.68
2023-01-19T19:05:39.729Z,74.09
2023-01-19T19:08:07.095Z,73.91
2023-01-19T19:10:33.618Z,73.81
2023-01-19T19:13:00.052Z,73.90
2023-01-19T19:15:27.150Z,73.99
2023-01-19T19:17:54.455Z,74.26
2023-01-19T19:20:22.648Z,74.15
2023-01-19T19:22:49.679Z,74.50
2023-01-19T19:25:16.207Z,74.20
2023-01-19T19:27:45.222Z,74.49
2023-01-19T19:30:13.423Z,74.88
2023-01-19T19:32:40.133Z,75.08
2023-01-19T19:35:07.164Z,74.80
2023-01-19T19:37:33.783Z,74.83
2023-01-19T19:40:00.283Z,74.85
2023-01-19T19:42:28.803Z,75.11
2023-01-19T19:44:55.321Z,75.15
2023-01-19T19:47:21.823Z,75.33
2023-01-19T19:49:48.214Z,75.15
2023-01-19T19:52:14.684Z,75.59
2023-01-19T19:54:41.052Z,75.69
2023-01-19T19:57:07.439Z,75.72
2023-01-19T19:59:33.805Z,75.71
2023-01-19T20:02:00.261Z,75.60
2023-01-19T20:04:26.856Z,75.89
2023-01-19T20:06:53.367Z,75.79
2023-01-19T20:09:19.784Z,76.43
2023-01-19T20:11:48.883Z,76.36
2023-01-19T20:14:16.233Z,76.17
2023-01-19T20:16:42.902Z,76.10
2023-01-19T20:19:09.431Z,76.34
2023-01-19T20:21:37.507Z,76.22
2023-01-19T20:24:07.480Z,76.04
2023-01-19T20:26:36.876Z,76.24
2023-01-19T20:29:07.832Z,76.22
2023-01-19T20:31:37.664Z,76.48
2023-01-19T20:34:07.779Z,76.52
2023-01-19T20:36:34.231Z,76.37
2023-01-19T20:39:02.722Z,76.70
2023-01-19T20:41:29.077Z,76.80
2023-01-19T20:43:55.581Z,76.57
2023-01-19T20:46:22.073Z,76.67
2023-01-19T20:48:52.698Z,76.59
2023-01-19T20:51:20.128Z,76.76
2023-01-19T20:53:47.224Z,76.53
2023-01-19T20:56:14.831Z,76.88
2023-01-19T20:58:42.190Z,76.86
2023-01-19T21:01:16.485Z,76.61
2023-01-19T21:03:43.095Z,76.85
2023-01-19T21:06:10.571Z,76.66
2023-01-19T21:08:37.774Z,76.97
2023-01-19T21:11:05.613Z,76.68
2023-01-19T21:13:32.530Z,76.65
2023-01-19T21:15:59.399Z,76.76
2023-01-19T21:18:27.822Z,76.69
2023-01-19T21:20:55.506Z,76.90
2023-01-19T21:23:21.910Z,76.78
2023-01-19T21:25:53.697Z,76.83
2023-01-19T21:28:21.631Z,77.25
2023-01-19T21:30:48.828Z,77.61
2023-01-19T21:33:16.041Z,77.03
2023-01-19T21:35:55.383Z,77.16
2023-01-19T21:38:23.490Z,77.35
2023-01-19T21:40:50.229Z,76.91
2023-01-19T21:43:17.426Z,77.05
2023-01-19T21:45:43.927Z,77.46
2023-01-19T21:48:10.638Z,76.97
2023-01-19T21:50:38.143Z,77.05
2023-01-19T21:53:07.664Z,77.09
2023-01-19T21:55:34.206Z,77.41
2023-01-19T21:58:00.729Z,77.31
2023-01-19T22:00:31.559Z,77.30
2023-01-19T22:03:03.871Z,77.52
2023-01-19T22:05:36.840Z,77.47
2023-01-19T22:08:04.853Z,77.39
2023-01-19T22:10:31.611Z,77.40
2023-01-19T22:12:58.029Z,77.24
2023-01-19T22:15:24.484Z,77.21
2023-01-19T22:17:50.922Z,77.30
2023-01-19T22:20:17.387Z,77.22
2023-01-19T22:22:43.787Z,77.22
2023-01-19T22:25:10.302Z,77.21
2023-01-19T22:27:37.372Z,77.28
2023-01-19T22:30:04.070Z,77.42
2023-01-19T22:32:31.324Z,77.34
2023-01-19T22:34:57.792Z,77.46
2023-01-19T22:37:24.641Z,77.11
2023-01-19T22:39:52.625Z,77.72
2023-01-19T22:42:19.044Z,77.68
2023-01-19T22:44:46.807Z,77.68
2023-01-19T22:47:13.275Z,77.67
2023-01-19T22:49:40.591Z,77.42
2023-01-19T22:52:07.036Z,77.22
2023-01-19T22:54:33.487Z,77.65
2023-01-19T22:57:00.028Z,77.45
2023-01-19T22:59:26.485Z,77.59
2023-01-19T23:01:53.213Z,77.64
2023-01-19T23:04:19.822Z,78.00
2023-01-19T23:06:50.310Z,77.64
2023-01-19T23:09:17.396Z,77.49
2023-01-19T23:11:50.056Z,77.54
2023-01-19T23:14:19.494Z,77.58
2023-01-19T23:16:47.019Z,77.59
2023-01-19T23:19:14.384Z,77.50
2023-01-19T23:21:40.975Z,77.80
2023-01-19T23:24:07.727Z,77.57
2023-01-19T23:26:38.061Z,77.24
2023-01-19T23:29:15.350Z,77.07
2023-01-19T23:31:46.964Z,77.38
2023-01-19T23:34:14.206Z,77.27
2023-01-19T23:36:42.741Z,77.56
2023-01-19T23:39:18.419Z,77.81
2023-01-19T23:41:45.201Z,78.16
2023-01-19T23:44:11.822Z,78.56
2023-01-19T23:46:38.745Z,78.36
2023-01-19T23:49:05.486Z,78.42
2023-01-19T23:51:33.243Z,78.60
2023-01-19T23:54:00.653Z,78.83
2023-01-19T23:56:33.329Z,78.75
2023-01-19T23:59:05.717Z,78.80
